Terminal Aerodrome Forecast
Issued by NWS Boston, MA

Home | Current Version | Previous Version | Text Only | Print | Product List | Glossary On
Versions: 1 2 3 4 5 6 7 8 9 10 11 12 13 14 15 16 17 18 19 20 21 22 23 24 25 26 27 28 29 30 31 32 33 34 35 36 37 38 39 40 41 42 43 44 45 46 47 48
000
FTUS41 KBOX 302344 AAB
TAFBDL
TAF AMD
KBDL 302344Z 3100/0106 VRB03KT P6SM BKN120
     FM310800 VRB03KT P6SM -RASN OVC035
     FM311100 04004KT P6SM -SNRAPL OVC015
     FM311400 05005KT 2SM -SNPLRA OVC010
     FM311600 05005KT 3/4SM -RASN BR OVC010
     FM312000 07006KT 1SM -SNPLRA BR OVC010
     FM312200 07007KT 5SM -RA OVC010
     FM010400 06011KT 5SM -RA OVC010=

USA.gov is the U.S. government's official web portal to all federal, state and local government web resources and services.